sensor_id;sensor_type;location;lat;lon;timestamp;pressure;altitude;pressure_sealevel;temperature;humidity
51530;BME280;37613;51.788;21.582;2024-02-15T00:00:52;100742.71;;;3.45;83.74
51530;BME280;37613;51.788;21.582;2024-02-15T00:05:12;100743.25;;;3.45;83.84
51530;BME280;37613;51.788;21.582;2024-02-15T00:09:14;100744.27;;;3.45;83.86
51530;BME280;37613;51.788;21.582;2024-02-15T00:13:15;100748.89;;;3.45;83.92
51530;BME280;37613;51.788;21.582;2024-02-15T00:17:17;100748.77;;;3.44;83.92
51530;BME280;37613;51.788;21.582;2024-02-15T00:21:19;100750.00;;;3.43;83.98
51530;BME280;37613;51.788;21.582;2024-02-15T00:25:21;100752.24;;;3.43;84.04
51530;BME280;37613;51.788;21.582;2024-02-15T00:29:23;100749.84;;;3.43;84.06
51530;BME280;37613;51.788;21.582;2024-02-15T00:33:26;100748.39;;;3.42;84.07
51530;BME280;37613;51.788;21.582;2024-02-15T00:37:28;100741.21;;;3.41;84.05
51530;BME280;37613;51.788;21.582;2024-02-15T00:41:31;100743.52;;;3.40;84.16
51530;BME280;37613;51.788;21.582;2024-02-15T00:45:33;100742.35;;;3.40;84.21
51530;BME280;37613;51.788;21.582;2024-02-15T00:49:35;100742.98;;;3.39;84.21
51530;BME280;37613;51.788;21.582;2024-02-15T00:53:37;100748.23;;;3.40;84.28
51530;BME280;37613;51.788;21.582;2024-02-15T00:57:39;100748.97;;;3.41;84.31
51530;BME280;37613;51.788;21.582;2024-02-15T01:01:41;100743.11;;;3.41;84.36
51530;BME280;37613;51.788;21.582;2024-02-15T01:05:42;100741.02;;;3.42;84.42
51530;BME280;37613;51.788;21.582;2024-02-15T01:09:44;100739.60;;;3.42;84.43
51530;BME280;37613;51.788;21.582;2024-02-15T01:13:46;100737.57;;;3.42;84.37
51530;BME280;37613;51.788;21.582;2024-02-15T01:17:48;100734.36;;;3.41;84.44
51530;BME280;37613;51.788;21.582;2024-02-15T01:21:50;100733.20;;;3.41;84.38
51530;BME280;37613;51.788;21.582;2024-02-15T01:25:52;100730.68;;;3.41;84.52
51530;BME280;37613;51.788;21.582;2024-02-15T01:29:54;100728.43;;;3.42;84.51
51530;BME280;37613;51.788;21.582;2024-02-15T01:33:57;100725.51;;;3.41;84.48
51530;BME280;37613;51.788;21.582;2024-02-15T01:37:58;100725.64;;;3.40;84.58
51530;BME280;37613;51.788;21.582;2024-02-15T01:42:00;100725.35;;;3.41;84.60
51530;BME280;37613;51.788;21.582;2024-02-15T01:46:07;100721.74;;;3.41;84.55
51530;BME280;37613;51.788;21.582;2024-02-15T01:50:10;100718.14;;;3.38;84.51
51530;BME280;37613;51.788;21.582;2024-02-15T01:54:13;100712.61;;;3.38;84.57
51530;BME280;37613;51.788;21.582;2024-02-15T01:58:18;100712.02;;;3.37;84.64
51530;BME280;37613;51.788;21.582;2024-02-15T02:02:21;100713.48;;;3.36;84.68
51530;BME280;37613;51.788;21.582;2024-02-15T02:06:24;100710.64;;;3.33;84.79
51530;BME280;37613;51.788;21.582;2024-02-15T02:10:26;100708.63;;;3.32;84.77
51530;BME280;37613;51.788;21.582;2024-02-15T02:14:28;100707.01;;;3.30;84.81
51530;BME280;37613;51.788;21.582;2024-02-15T02:18:30;100702.67;;;3.29;84.95
51530;BME280;37613;51.788;21.582;2024-02-15T02:22:32;100702.67;;;3.29;84.84
51530;BME280;37613;51.788;21.582;2024-02-15T02:26:34;100701.08;;;3.28;84.93
51530;BME280;37613;51.788;21.582;2024-02-15T02:30:36;100699.25;;;3.28;84.95
51530;BME280;37613;51.788;21.582;2024-02-15T02:34:38;100695.84;;;3.26;84.90
51530;BME280;37613;51.788;21.582;2024-02-15T02:38:42;100696.14;;;3.26;84.97
51530;BME280;37613;51.788;21.582;2024-02-15T02:42:53;100693.95;;;3.26;85.07
51530;BME280;37613;51.788;21.582;2024-02-15T02:46:57;100692.34;;;3.27;85.04
51530;BME280;37613;51.788;21.582;2024-02-15T02:50:59;100689.80;;;3.27;85.08
51530;BME280;37613;51.788;21.582;2024-02-15T02:55:01;100697.51;;;3.29;85.15
51530;BME280;37613;51.788;21.582;2024-02-15T02:59:02;100691.63;;;3.31;85.16
51530;BME280;37613;51.788;21.582;2024-02-15T03:03:05;100690.48;;;3.32;85.07
51530;BME280;37613;51.788;21.582;2024-02-15T03:07:07;100692.84;;;3.32;85.14
51530;BME280;37613;51.788;21.582;2024-02-15T03:11:09;100689.48;;;3.32;85.10
51530;BME280;37613;51.788;21.582;2024-02-15T03:15:11;100688.02;;;3.33;85.21
51530;BME280;37613;51.788;21.582;2024-02-15T03:19:13;100693.17;;;3.34;85.23
51530;BME280;37613;51.788;21.582;2024-02-15T03:23:15;100696.65;;;3.35;85.24
51530;BME280;37613;51.788;21.582;2024-02-15T03:27:16;100696.15;;;3.37;85.21
51530;BME280;37613;51.788;21.582;2024-02-15T03:31:18;100697.09;;;3.37;85.12
51530;BME280;37613;51.788;21.582;2024-02-15T03:35:21;100700.21;;;3.37;85.16
51530;BME280;37613;51.788;21.582;2024-02-15T03:39:26;100700.20;;;3.37;85.20
51530;BME280;37613;51.788;21.582;2024-02-15T03:43:29;100700.23;;;3.38;85.18
51530;BME280;37613;51.788;21.582;2024-02-15T03:47:30;100697.97;;;3.38;85.18
51530;BME280;37613;51.788;21.582;2024-02-15T03:51:34;100695.33;;;3.38;85.13
51530;BME280;37613;51.788;21.582;2024-02-15T03:55:36;100691.27;;;3.38;85.09
51530;BME280;37613;51.788;21.582;2024-02-15T03:59:38;100687.73;;;3.38;85.22
51530;BME280;37613;51.788;21.582;2024-02-15T04:03:41;100688.05;;;3.38;85.22
51530;BME280;37613;51.788;21.582;2024-02-15T04:07:44;100690.59;;;3.39;85.18
51530;BME280;37613;51.788;21.582;2024-02-15T04:11:49;100689.38;;;3.38;85.16
51530;BME280;37613;51.788;21.582;2024-02-15T04:15:54;100691.34;;;3.38;85.26
51530;BME280;37613;51.788;21.582;2024-02-15T04:19:56;100695.54;;;3.39;85.28
51530;BME280;37613;51.788;21.582;2024-02-15T04:23:57;100695.65;;;3.41;85.17
51530;BME280;37613;51.788;21.582;2024-02-15T04:27:59;100694.23;;;3.42;85.20
51530;BME280;37613;51.788;21.582;2024-02-15T04:32:05;100689.59;;;3.43;85.23
51530;BME280;37613;51.788;21.582;2024-02-15T04:36:11;100688.21;;;3.44;85.11
51530;BME280;37613;51.788;21.582;2024-02-15T04:40:13;100687.11;;;3.44;85.26
51530;BME280;37613;51.788;21.582;2024-02-15T04:44:15;100689.17;;;3.44;85.33
51530;BME280;37613;51.788;21.582;2024-02-15T04:48:18;100692.52;;;3.44;85.12
51530;BME280;37613;51.788;21.582;2024-02-15T04:52:20;100692.67;;;3.44;85.16
51530;BME280;37613;51.788;21.582;2024-02-15T04:56:25;100696.76;;;3.45;85.19
51530;BME280;37613;51.788;21.582;2024-02-15T05:00:27;100701.63;;;3.46;85.16
51530;BME280;37613;51.788;21.582;2024-02-15T05:04:28;100705.33;;;3.46;85.03
51530;BME280;37613;51.788;21.582;2024-02-15T05:08:30;100705.32;;;3.46;85.15
51530;BME280;37613;51.788;21.582;2024-02-15T05:12:33;100702.98;;;3.46;85.14
51530;BME280;37613;51.788;21.582;2024-02-15T05:16:35;100706.19;;;3.47;85.23
51530;BME280;37613;51.788;21.582;2024-02-15T05:20:43;100706.55;;;3.46;85.10
51530;BME280;37613;51.788;21.582;2024-02-15T05:24:45;100710.33;;;3.44;85.18
51530;BME280;37613;51.788;21.582;2024-02-15T05:28:46;100710.80;;;3.44;85.07
51530;BME280;37613;51.788;21.582;2024-02-15T05:32:48;100714.83;;;3.43;85.08
51530;BME280;37613;51.788;21.582;2024-02-15T05:36:51;100712.95;;;3.43;85.34
51530;BME280;37613;51.788;21.582;2024-02-15T05:40:53;100719.55;;;3.49;85.35
51530;BME280;37613;51.788;21.582;2024-02-15T05:44:56;100721.33;;;3.48;85.10
51530;BME280;37613;51.788;21.582;2024-02-15T05:49:01;100724.56;;;3.47;85.12
51530;BME280;37613;51.788;21.582;2024-02-15T05:53:03;100723.57;;;3.45;85.13
51530;BME280;37613;51.788;21.582;2024-02-15T05:57:06;100718.00;;;3.43;85.17
51530;BME280;37613;51.788;21.582;2024-02-15T06:01:08;100724.71;;;3.40;85.16
51530;BME280;37613;51.788;21.582;2024-02-15T06:05:12;100732.36;;;3.38;85.12
51530;BME280;37613;51.788;21.582;2024-02-15T06:09:14;100734.81;;;3.38;85.24
51530;BME280;37613;51.788;21.582;2024-02-15T06:13:15;100737.11;;;3.39;85.29
51530;BME280;37613;51.788;21.582;2024-02-15T06:17:17;100743.77;;;3.40;85.24
51530;BME280;37613;51.788;21.582;2024-02-15T06:21:19;100746.94;;;3.41;85.36
51530;BME280;37613;51.788;21.582;2024-02-15T06:25:22;100746.79;;;3.41;85.41
51530;BME280;37613;51.788;21.582;2024-02-15T06:29:25;100746.69;;;3.41;85.42
51530;BME280;37613;51.788;21.582;2024-02-15T06:33:46;100742.15;;;3.42;85.49
51530;BME280;37613;51.788;21.582;2024-02-15T06:38:06;100748.66;;;3.45;85.46
51530;BME280;37613;51.788;21.582;2024-02-15T06:42:26;100749.04;;;3.47;85.59
51530;BME280;37613;51.788;21.582;2024-02-15T06:46:31;100751.34;;;3.48;85.56
51530;BME280;37613;51.788;21.582;2024-02-15T06:50:35;100754.95;;;3.50;85.68
51530;BME280;37613;51.788;21.582;2024-02-15T06:54:39;100751.05;;;3.55;85.71
51530;BME280;37613;51.788;21.582;2024-02-15T06:58:41;100747.93;;;3.57;85.68
51530;BME280;37613;51.788;21.582;2024-02-15T07:02:43;100749.16;;;3.58;85.78
51530;BME280;37613;51.788;21.582;2024-02-15T07:06:45;100751.10;;;3.65;85.85
51530;BME280;37613;51.788;21.582;2024-02-15T07:10:50;100751.36;;;3.78;86.27
51530;BME280;37613;51.788;21.582;2024-02-15T07:14:55;100752.00;;;4.03;86.44
51530;BME280;37613;51.788;21.582;2024-02-15T07:18:58;100747.17;;;4.34;86.07
51530;BME280;37613;51.788;21.582;2024-02-15T07:23:01;100747.95;;;4.67;86.10
51530;BME280;37613;51.788;21.582;2024-02-15T07:27:04;100751.64;;;5.03;86.18
51530;BME280;37613;51.788;21.582;2024-02-15T07:31:07;100748.91;;;5.15;85.37
51530;BME280;37613;51.788;21.582;2024-02-15T07:35:09;100747.02;;;5.18;85.59
51530;BME280;37613;51.788;21.582;2024-02-15T07:39:11;100748.51;;;5.20;85.00
51530;BME280;37613;51.788;21.582;2024-02-15T07:43:20;100749.94;;;5.08;83.85
51530;BME280;37613;51.788;21.582;2024-02-15T07:47:23;100752.05;;;4.95;83.94
51530;BME280;37613;51.788;21.582;2024-02-15T07:51:25;100758.18;;;4.89;83.95
51530;BME280;37613;51.788;21.582;2024-02-15T07:55:29;100757.96;;;4.87;84.36
51530;BME280;37613;51.788;21.582;2024-02-15T07:59:31;100755.98;;;4.86;84.48
51530;BME280;37613;51.788;21.582;2024-02-15T08:03:33;100755.95;;;4.84;84.21
51530;BME280;37613;51.788;21.582;2024-02-15T08:07:46;100754.65;;;4.81;84.16
51530;BME280;37613;51.788;21.582;2024-02-15T08:11:48;100754.80;;;4.78;84.40
51530;BME280;37613;51.788;21.582;2024-02-15T08:15:51;100750.87;;;4.78;84.40
51530;BME280;37613;51.788;21.582;2024-02-15T08:19:54;100753.31;;;4.76;84.38
51530;BME280;37613;51.788;21.582;2024-02-15T08:23:57;100752.93;;;4.76;84.52
51530;BME280;37613;51.788;21.582;2024-02-15T08:28:00;100754.14;;;4.77;84.78
51530;BME280;37613;51.788;21.582;2024-02-15T08:32:06;100759.81;;;4.79;84.81
51530;BME280;37613;51.788;21.582;2024-02-15T08:36:09;100765.75;;;4.81;84.78
51530;BME280;37613;51.788;21.582;2024-02-15T08:40:12;100767.08;;;4.80;84.99
51530;BME280;37613;51.788;21.582;2024-02-15T08:44:16;100768.13;;;4.81;85.17
51530;BME280;37613;51.788;21.582;2024-02-15T08:48:20;100771.34;;;4.82;85.13
51530;BME280;37613;51.788;21.582;2024-02-15T08:52:24;100772.31;;;4.80;85.21
51530;BME280;37613;51.788;21.582;2024-02-15T08:56:27;100772.05;;;4.79;85.21
51530;BME280;37613;51.788;21.582;2024-02-15T09:00:29;100772.88;;;4.81;85.52
51530;BME280;37613;51.788;21.582;2024-02-15T09:04:31;100776.84;;;4.87;85.96
51530;BME280;37613;51.788;21.582;2024-02-15T09:08:33;100774.25;;;4.94;85.85
51530;BME280;37613;51.788;21.582;2024-02-15T09:12:36;100768.22;;;4.96;85.91
51530;BME280;37613;51.788;21.582;2024-02-15T09:16:39;100772.19;;;5.05;85.91
51530;BME280;37613;51.788;21.582;2024-02-15T09:20:41;100773.70;;;5.19;85.97
51530;BME280;37613;51.788;21.582;2024-02-15T09:24:46;100777.80;;;5.25;85.47
51530;BME280;37613;51.788;21.582;2024-02-15T09:28:48;100779.21;;;5.25;85.29
51530;BME280;37613;51.788;21.582;2024-02-15T09:32:55;100777.33;;;5.28;85.25
51530;BME280;37613;51.788;21.582;2024-02-15T09:36:58;100780.71;;;5.33;85.26
51530;BME280;37613;51.788;21.582;2024-02-15T09:41:00;100776.23;;;5.41;85.21
51530;BME280;37613;51.788;21.582;2024-02-15T09:45:02;100778.92;;;5.52;85.72
51530;BME280;37613;51.788;21.582;2024-02-15T09:49:04;100778.63;;;5.71;85.44
51530;BME280;37613;51.788;21.582;2024-02-15T09:53:08;100778.95;;;5.88;85.59
51530;BME280;37613;51.788;21.582;2024-02-15T09:57:11;100777.27;;;6.16;85.87
51530;BME280;37613;51.788;21.582;2024-02-15T10:01:13;100776.03;;;6.34;85.21
51530;BME280;37613;51.788;21.582;2024-02-15T10:05:17;100774.05;;;6.45;85.32
51530;BME280;37613;51.788;21.582;2024-02-15T10:09:29;100770.48;;;6.63;85.44
51530;BME280;37613;51.788;21.582;2024-02-15T10:13:31;100773.67;;;6.81;85.33
51530;BME280;37613;51.788;21.582;2024-02-15T10:17:33;100775.77;;;6.86;84.75
51530;BME280;37613;51.788;21.582;2024-02-15T10:21:37;100773.77;;;6.79;84.91
51530;BME280;37613;51.788;21.582;2024-02-15T10:25:40;100766.56;;;6.70;84.50
51530;BME280;37613;51.788;21.582;2024-02-15T10:29:42;100764.10;;;6.59;84.42
51530;BME280;37613;51.788;21.582;2024-02-15T10:33:44;100762.20;;;6.58;85.31
51530;BME280;37613;51.788;21.582;2024-02-15T10:37:49;100764.17;;;6.65;85.06
51530;BME280;37613;51.788;21.582;2024-02-15T10:41:52;100762.33;;;6.67;84.86
51530;BME280;37613;51.788;21.582;2024-02-15T10:45:55;100760.82;;;6.60;84.79
51530;BME280;37613;51.788;21.582;2024-02-15T10:49:57;100758.58;;;6.58;85.04
51530;BME280;37613;51.788;21.582;2024-02-15T10:54:01;100756.05;;;6.58;85.07
51530;BME280;37613;51.788;21.582;2024-02-15T10:58:06;100751.92;;;6.56;84.97
51530;BME280;37613;51.788;21.582;2024-02-15T11:02:22;100749.24;;;6.49;84.80
51530;BME280;37613;51.788;21.582;2024-02-15T11:06:22;100759.59;;;6.46;85.06
51530;BME280;37613;51.788;21.582;2024-02-15T11:10:36;100757.38;;;6.47;85.04
51530;BME280;37613;51.788;21.582;2024-02-15T11:14:38;100758.31;;;6.44;85.17
51530;BME280;37613;51.788;21.582;2024-02-15T11:18:47;100759.54;;;6.43;85.39
51530;BME280;37613;51.788;21.582;2024-02-15T11:22:56;100756.88;;;6.44;85.47
51530;BME280;37613;51.788;21.582;2024-02-15T11:27:02;100753.44;;;6.40;85.30
51530;BME280;37613;51.788;21.582;2024-02-15T11:31:08;100743.76;;;6.37;85.59
51530;BME280;37613;51.788;21.582;2024-02-15T11:35:14;100743.84;;;6.40;85.97
51530;BME280;37613;51.788;21.582;2024-02-15T11:47:55;100730.04;;;6.48;86.14
51530;BME280;37613;51.788;21.582;2024-02-15T11:52:08;100731.14;;;6.51;86.31
51530;BME280;37613;51.788;21.582;2024-02-15T11:56:10;100730.34;;;6.56;86.45
51530;BME280;37613;51.788;21.582;2024-02-15T12:00:21;100726.08;;;6.62;86.61
51530;BME280;37613;51.788;21.582;2024-02-15T12:04:44;100722.92;;;6.71;86.61
51530;BME280;37613;51.788;21.582;2024-02-15T12:09:06;100730.16;;;6.82;86.74
51530;BME280;37613;51.788;21.582;2024-02-15T12:13:30;100730.78;;;6.88;86.49
51530;BME280;37613;51.788;21.582;2024-02-15T12:17:51;100726.67;;;6.87;86.22
51530;BME280;37613;51.788;21.582;2024-02-15T12:22:15;100723.94;;;6.84;86.24
51530;BME280;37613;51.788;21.582;2024-02-15T12:26:53;100722.30;;;6.88;86.39
51530;BME280;37613;51.788;21.582;2024-02-15T12:31:28;100722.24;;;6.93;86.59
51530;BME280;37613;51.788;21.582;2024-02-15T12:36:06;100721.33;;;7.01;86.60
51530;BME280;37613;51.788;21.582;2024-02-15T12:40:43;100718.08;;;7.04;86.60
51530;BME280;37613;51.788;21.582;2024-02-15T12:45:08;100717.13;;;7.04;86.66
51530;BME280;37613;51.788;21.582;2024-02-15T12:49:32;100715.26;;;7.04;86.80
51530;BME280;37613;51.788;21.582;2024-02-15T12:53:51;100713.64;;;7.13;87.12
51530;BME280;37613;51.788;21.582;2024-02-15T12:58:12;100713.33;;;7.20;87.01
51530;BME280;37613;51.788;21.582;2024-02-15T13:02:22;100709.90;;;7.18;86.75
51530;BME280;37613;51.788;21.582;2024-02-15T13:06:47;100709.53;;;7.11;86.87
51530;BME280;37613;51.788;21.582;2024-02-15T13:10:59;100714.77;;;7.10;86.74
51530;BME280;37613;51.788;21.582;2024-02-15T13:15:41;100714.77;;;7.10;86.79
51530;BME280;37613;51.788;21.582;2024-02-15T13:20:16;100715.86;;;7.14;87.00
51530;BME280;37613;51.788;21.582;2024-02-15T13:24:29;100716.43;;;7.18;87.08
51530;BME280;37613;51.788;21.582;2024-02-15T13:28:51;100713.88;;;7.20;86.94
51530;BME280;37613;51.788;21.582;2024-02-15T13:32:57;100712.48;;;7.20;87.23
51530;BME280;37613;51.788;21.582;2024-02-15T13:37:22;100711.55;;;7.24;87.28
51530;BME280;37613;51.788;21.582;2024-02-15T13:41:45;100707.58;;;7.27;86.99
51530;BME280;37613;51.788;21.582;2024-02-15T13:46:23;100708.43;;;7.23;86.93
51530;BME280;37613;51.788;21.582;2024-02-15T13:50:59;100711.58;;;7.23;87.24
51530;BME280;37613;51.788;21.582;2024-02-15T13:55:36;100709.52;;;7.25;87.37
51530;BME280;37613;51.788;21.582;2024-02-15T13:59:47;100705.66;;;7.30;87.38
51530;BME280;37613;51.788;21.582;2024-02-15T14:03:49;100704.34;;;7.26;87.08
51530;BME280;37613;51.788;21.582;2024-02-15T14:07:52;100700.55;;;7.22;87.10
51530;BME280;37613;51.788;21.582;2024-02-15T14:11:57;100700.22;;;7.21;87.29
51530;BME280;37613;51.788;21.582;2024-02-15T14:16:02;100701.56;;;7.22;87.30
51530;BME280;37613;51.788;21.582;2024-02-15T14:20:04;100708.38;;;7.20;87.32
51530;BME280;37613;51.788;21.582;2024-02-15T14:24:10;100702.88;;;7.17;87.20
51530;BME280;37613;51.788;21.582;2024-02-15T14:28:12;100696.13;;;7.14;87.28
51530;BME280;37613;51.788;21.582;2024-02-15T14:32:15;100694.43;;;7.11;87.45
51530;BME280;37613;51.788;21.582;2024-02-15T14:36:36;100697.89;;;7.11;87.43
51530;BME280;37613;51.788;21.582;2024-02-15T14:40:40;100701.09;;;7.10;87.38
51530;BME280;37613;51.788;21.582;2024-02-15T14:45:00;100701.44;;;7.12;87.59
51530;BME280;37613;51.788;21.582;2024-02-15T14:49:02;100704.94;;;7.10;87.58
51530;BME280;37613;51.788;21.582;2024-02-15T14:53:04;100706.90;;;7.09;87.50
51530;BME280;37613;51.788;21.582;2024-02-15T14:57:22;100709.08;;;7.09;87.79
51530;BME280;37613;51.788;21.582;2024-02-15T15:01:27;100706.63;;;7.08;87.76
51530;BME280;37613;51.788;21.582;2024-02-15T15:05:46;100708.28;;;7.08;87.66
51530;BME280;37613;51.788;21.582;2024-02-15T15:10:07;100707.48;;;7.08;87.67
51530;BME280;37613;51.788;21.582;2024-02-15T15:14:38;100707.60;;;7.07;87.67
51530;BME280;37613;51.788;21.582;2024-02-15T15:18:41;100711.15;;;7.03;87.59
51530;BME280;37613;51.788;21.582;2024-02-15T15:22:43;100711.74;;;6.98;87.52
51530;BME280;37613;51.788;21.582;2024-02-15T15:26:45;100714.16;;;6.93;87.62
51530;BME280;37613;51.788;21.582;2024-02-15T15:30:48;100719.73;;;6.90;87.41
51530;BME280;37613;51.788;21.582;2024-02-15T15:34:52;100725.33;;;6.86;87.37
51530;BME280;37613;51.788;21.582;2024-02-15T15:38:54;100721.39;;;6.84;87.39
51530;BME280;37613;51.788;21.582;2024-02-15T15:42:56;100721.22;;;6.83;87.44
51530;BME280;37613;51.788;21.582;2024-02-15T15:47:02;100723.10;;;6.83;87.54
51530;BME280;37613;51.788;21.582;2024-02-15T15:51:41;100729.52;;;6.85;87.48
51530;BME280;37613;51.788;21.582;2024-02-15T15:56:12;100731.34;;;6.89;87.56
51530;BME280;37613;51.788;21.582;2024-02-15T16:00:18;100730.65;;;6.92;87.58
51530;BME280;37613;51.788;21.582;2024-02-15T16:04:45;100735.04;;;6.96;87.52
51530;BME280;37613;51.788;21.582;2024-02-15T16:08:52;100738.23;;;6.98;87.54
51530;BME280;37613;51.788;21.582;2024-02-15T16:12:56;100740.61;;;6.99;87.44
51530;BME280;37613;51.788;21.582;2024-02-15T16:17:30;100738.94;;;7.02;87.79
51530;BME280;37613;51.788;21.582;2024-02-15T16:21:52;100737.27;;;7.04;87.81
51530;BME280;37613;51.788;21.582;2024-02-15T16:26:06;100739.90;;;7.03;87.53
51530;BME280;37613;51.788;21.582;2024-02-15T16:30:28;100741.39;;;6.98;87.16
51530;BME280;37613;51.788;21.582;2024-02-15T16:34:34;100742.06;;;6.97;87.36
51530;BME280;37613;51.788;21.582;2024-02-15T16:38:44;100744.91;;;6.98;87.57
51530;BME280;37613;51.788;21.582;2024-02-15T16:43:01;100745.43;;;6.97;87.63
51530;BME280;37613;51.788;21.582;2024-02-15T16:47:10;100749.50;;;6.95;87.55
51530;BME280;37613;51.788;21.582;2024-02-15T16:51:42;100755.61;;;6.94;87.58
51530;BME280;37613;51.788;21.582;2024-02-15T16:55:44;100754.78;;;6.93;87.65
51530;BME280;37613;51.788;21.582;2024-02-15T16:59:46;100756.78;;;6.91;87.53
51530;BME280;37613;51.788;21.582;2024-02-15T17:04:32;100759.66;;;6.90;87.61
51530;BME280;37613;51.788;21.582;2024-02-15T17:09:07;100765.52;;;6.92;87.57
51530;BME280;37613;51.788;21.582;2024-02-15T17:13:14;100770.09;;;6.92;87.41
51530;BME280;37613;51.788;21.582;2024-02-15T17:17:18;100769.48;;;6.93;87.24
51530;BME280;37613;51.788;21.582;2024-02-15T17:21:29;100769.39;;;6.89;87.10
51530;BME280;37613;51.788;21.582;2024-02-15T17:25:38;100773.00;;;6.85;87.32
51530;BME280;37613;51.788;21.582;2024-02-15T17:29:40;100772.57;;;6.81;87.19
51530;BME280;37613;51.788;21.582;2024-02-15T17:33:42;100775.58;;;6.75;87.11
51530;BME280;37613;51.788;21.582;2024-02-15T17:37:47;100781.25;;;6.70;86.99
51530;BME280;37613;51.788;21.582;2024-02-15T17:41:50;100785.91;;;6.64;86.99
51530;BME280;37613;51.788;21.582;2024-02-15T17:45:56;100782.66;;;6.60;87.16
51530;BME280;37613;51.788;21.582;2024-02-15T17:50:01;100784.02;;;6.58;86.99
51530;BME280;37613;51.788;21.582;2024-02-15T17:54:05;100784.63;;;6.57;87.00
51530;BME280;37613;51.788;21.582;2024-02-15T17:58:09;100787.27;;;6.53;87.09
51530;BME280;37613;51.788;21.582;2024-02-15T18:02:11;100787.05;;;6.51;87.09
51530;BME280;37613;51.788;21.582;2024-02-15T18:06:26;100780.58;;;6.52;87.15
51530;BME280;37613;51.788;21.582;2024-02-15T18:10:56;100775.98;;;6.56;87.20
51530;BME280;37613;51.788;21.582;2024-02-15T18:15:02;100773.20;;;6.56;87.35
51530;BME280;37613;51.788;21.582;2024-02-15T18:19:05;100772.58;;;6.53;87.44
51530;BME280;37613;51.788;21.582;2024-02-15T18:23:07;100772.95;;;6.52;87.57
51530;BME280;37613;51.788;21.582;2024-02-15T18:27:18;100769.89;;;6.49;87.57
51530;BME280;37613;51.788;21.582;2024-02-15T18:31:22;100775.91;;;6.51;87.75
51530;BME280;37613;51.788;21.582;2024-02-15T18:35:24;100780.77;;;6.51;87.94
51530;BME280;37613;51.788;21.582;2024-02-15T18:39:26;100783.44;;;6.50;87.91
51530;BME280;37613;51.788;21.582;2024-02-15T18:43:30;100783.34;;;6.49;87.96
51530;BME280;37613;51.788;21.582;2024-02-15T18:47:33;100784.60;;;6.47;88.04
51530;BME280;37613;51.788;21.582;2024-02-15T18:51:43;100781.19;;;6.46;88.07
51530;BME280;37613;51.788;21.582;2024-02-15T18:55:46;100784.27;;;6.46;88.09
51530;BME280;37613;51.788;21.582;2024-02-15T18:59:49;100788.21;;;6.46;88.14
51530;BME280;37613;51.788;21.582;2024-02-15T19:03:51;100786.70;;;6.46;88.11
51530;BME280;37613;51.788;21.582;2024-02-15T19:07:53;100783.27;;;6.44;88.13
51530;BME280;37613;51.788;21.582;2024-02-15T19:11:55;100783.98;;;6.44;88.09
51530;BME280;37613;51.788;21.582;2024-02-15T19:15:58;100784.20;;;6.43;88.16
51530;BME280;37613;51.788;21.582;2024-02-15T19:20:01;100789.80;;;6.41;88.22
51530;BME280;37613;51.788;21.582;2024-02-15T19:24:03;100791.30;;;6.38;88.20
51530;BME280;37613;51.788;21.582;2024-02-15T19:28:05;100786.97;;;6.35;88.35
51530;BME280;37613;51.788;21.582;2024-02-15T19:32:13;100783.91;;;6.31;88.33
51530;BME280;37613;51.788;21.582;2024-02-15T19:36:40;100777.44;;;6.30;88.41
51530;BME280;37613;51.788;21.582;2024-02-15T19:40:59;100771.19;;;6.29;88.49
51530;BME280;37613;51.788;21.582;2024-02-15T19:45:06;100770.23;;;6.29;88.51
51530;BME280;37613;51.788;21.582;2024-02-15T19:49:16;100771.36;;;6.27;88.62
51530;BME280;37613;51.788;21.582;2024-02-15T19:53:20;100771.73;;;6.26;88.75
51530;BME280;37613;51.788;21.582;2024-02-15T19:57:23;100772.88;;;6.24;88.70
51530;BME280;37613;51.788;21.582;2024-02-15T20:01:25;100771.31;;;6.22;88.87
51530;BME280;37613;51.788;21.582;2024-02-15T20:05:27;100772.38;;;6.17;89.01
51530;BME280;37613;51.788;21.582;2024-02-15T20:09:30;100780.52;;;6.14;88.95
51530;BME280;37613;51.788;21.582;2024-02-15T20:13:32;100777.71;;;6.11;88.98
51530;BME280;37613;51.788;21.582;2024-02-15T20:17:34;100779.75;;;6.08;89.08
51530;BME280;37613;51.788;21.582;2024-02-15T20:21:39;100780.23;;;6.06;89.27
51530;BME280;37613;51.788;21.582;2024-02-15T20:25:42;100782.73;;;6.05;89.12
51530;BME280;37613;51.788;21.582;2024-02-15T20:29:46;100783.43;;;6.06;89.23
51530;BME280;37613;51.788;21.582;2024-02-15T20:33:48;100785.11;;;6.06;89.34
51530;BME280;37613;51.788;21.582;2024-02-15T20:37:57;100785.09;;;6.08;89.29
51530;BME280;37613;51.788;21.582;2024-02-15T20:41:59;100783.12;;;6.08;89.45
51530;BME280;37613;51.788;21.582;2024-02-15T20:46:02;100781.27;;;6.07;89.54
51530;BME280;37613;51.788;21.582;2024-02-15T20:50:05;100782.13;;;6.06;89.54
51530;BME280;37613;51.788;21.582;2024-02-15T20:54:09;100778.96;;;6.06;89.64
51530;BME280;37613;51.788;21.582;2024-02-15T20:58:17;100778.86;;;6.05;89.75
51530;BME280;37613;51.788;21.582;2024-02-15T21:02:19;100779.82;;;6.05;89.71
51530;BME280;37613;51.788;21.582;2024-02-15T21:06:23;100771.69;;;6.06;89.81
51530;BME280;37613;51.788;21.582;2024-02-15T21:10:27;100770.98;;;6.06;89.81
51530;BME280;37613;51.788;21.582;2024-02-15T21:14:44;100776.92;;;6.06;89.83
51530;BME280;37613;51.788;21.582;2024-02-15T21:19:21;100775.00;;;6.07;90.00
51530;BME280;37613;51.788;21.582;2024-02-15T21:23:58;100773.23;;;6.11;89.95
51530;BME280;37613;51.788;21.582;2024-02-15T21:28:23;100770.06;;;6.13;90.05
51530;BME280;37613;51.788;21.582;2024-02-15T21:32:56;100768.95;;;6.15;90.03
51530;BME280;37613;51.788;21.582;2024-02-15T21:37:18;100772.70;;;6.17;90.06
51530;BME280;37613;51.788;21.582;2024-02-15T21:41:45;100775.79;;;6.19;90.18